sensor_id;sensor_type;location;lat;lon;timestamp;P1;durP1;ratioP1;P2;durP2;ratioP2
62071;SDS011;48031;48.542;13.232;2023-03-14T00:03:40;2.97;;;1.95;;
62071;SDS011;48031;48.542;13.232;2023-03-14T00:07:42;2.45;;;2.10;;
62071;SDS011;48031;48.542;13.232;2023-03-14T00:11:44;2.90;;;2.00;;
62071;SDS011;48031;48.542;13.232;2023-03-14T00:15:46;1.80;;;1.60;;
62071;SDS011;48031;48.542;13.232;2023-03-14T00:19:48;3.15;;;2.20;;
62071;SDS011;48031;48.542;13.232;2023-03-14T00:23:53;3.78;;;2.38;;
62071;SDS011;48031;48.542;13.232;2023-03-14T00:27:55;4.25;;;2.30;;
62071;SDS011;48031;48.542;13.232;2023-03-14T00:31:57;3.90;;;2.10;;
62071;SDS011;48031;48.542;13.232;2023-03-14T00:36:00;2.92;;;2.25;;
62071;SDS011;48031;48.542;13.232;2023-03-14T00:40:04;2.83;;;1.80;;
62071;SDS011;48031;48.542;13.232;2023-03-14T00:44:08;2.97;;;1.80;;
62071;SDS011;48031;48.542;13.232;2023-03-14T00:48:10;2.90;;;2.38;;
62071;SDS011;48031;48.542;13.232;2023-03-14T00:52:12;4.07;;;1.92;;
62071;SDS011;48031;48.542;13.232;2023-03-14T00:56:14;2.38;;;1.60;;
62071;SDS011;48031;48.542;13.232;2023-03-14T01:00:16;1.33;;;1.23;;
62071;SDS011;48031;48.542;13.232;2023-03-14T01:04:18;1.42;;;1.30;;
62071;SDS011;48031;48.542;13.232;2023-03-14T01:08:20;1.52;;;1.20;;
62071;SDS011;48031;48.542;13.232;2023-03-14T01:12:22;1.40;;;1.30;;
62071;SDS011;48031;48.542;13.232;2023-03-14T01:16:25;2.50;;;2.10;;
62071;SDS011;48031;48.542;13.232;2023-03-14T01:20:28;3.05;;;1.98;;
62071;SDS011;48031;48.542;13.232;2023-03-14T01:24:30;2.60;;;2.00;;
62071;SDS011;48031;48.542;13.232;2023-03-14T01:28:32;3.95;;;2.45;;
62071;SDS011;48031;48.542;13.232;2023-03-14T01:32:35;2.97;;;2.17;;
62071;SDS011;48031;48.542;13.232;2023-03-14T01:36:37;3.35;;;1.95;;
62071;SDS011;48031;48.542;13.232;2023-03-14T01:40:43;2.42;;;1.92;;
62071;SDS011;48031;48.542;13.232;2023-03-14T01:44:56;3.28;;;1.85;;
62071;SDS011;48031;48.542;13.232;2023-03-14T01:53:19;4.60;;;2.90;;
62071;SDS011;48031;48.542;13.232;2023-03-14T02:01:41;2.43;;;1.70;;
62071;SDS011;48031;48.542;13.232;2023-03-14T02:05:46;5.63;;;2.25;;
62071;SDS011;48031;48.542;13.232;2023-03-14T02:09:52;3.60;;;2.10;;
62071;SDS011;48031;48.542;13.232;2023-03-14T02:13:59;2.15;;;1.65;;
62071;SDS011;48031;48.542;13.232;2023-03-14T02:18:22;5.32;;;2.20;;
62071;SDS011;48031;48.542;13.232;2023-03-14T02:22:33;3.03;;;2.20;;
62071;SDS011;48031;48.542;13.232;2023-03-14T02:26:42;3.33;;;2.25;;
62071;SDS011;48031;48.542;13.232;2023-03-14T02:30:47;1.93;;;1.60;;
62071;SDS011;48031;48.542;13.232;2023-03-14T02:34:50;3.85;;;2.25;;
62071;SDS011;48031;48.542;13.232;2023-03-14T02:39:00;3.58;;;1.80;;
62071;SDS011;48031;48.542;13.232;2023-03-14T02:43:08;2.03;;;1.80;;
62071;SDS011;48031;48.542;13.232;2023-03-14T02:47:12;2.45;;;1.85;;
62071;SDS011;48031;48.542;13.232;2023-03-14T02:51:14;2.33;;;1.80;;
62071;SDS011;48031;48.542;13.232;2023-03-14T02:55:23;1.80;;;1.60;;
62071;SDS011;48031;48.542;13.232;2023-03-14T02:59:31;1.58;;;1.33;;
62071;SDS011;48031;48.542;13.232;2023-03-14T03:03:40;1.77;;;1.20;;
62071;SDS011;48031;48.542;13.232;2023-03-14T03:07:42;1.67;;;1.05;;
62071;SDS011;48031;48.542;13.232;2023-03-14T03:11:44;1.10;;;1.00;;
62071;SDS011;48031;48.542;13.232;2023-03-14T03:15:52;0.93;;;0.93;;
62071;SDS011;48031;48.542;13.232;2023-03-14T03:19:54;1.20;;;1.10;;
62071;SDS011;48031;48.542;13.232;2023-03-14T03:23:56;1.00;;;0.90;;
62071;SDS011;48031;48.542;13.232;2023-03-14T03:27:58;1.30;;;1.20;;
62071;SDS011;48031;48.542;13.232;2023-03-14T03:32:01;0.95;;;0.90;;
62071;SDS011;48031;48.542;13.232;2023-03-14T03:36:02;1.02;;;0.98;;
62071;SDS011;48031;48.542;13.232;2023-03-14T03:40:09;2.30;;;1.60;;
62071;SDS011;48031;48.542;13.232;2023-03-14T03:44:11;1.35;;;1.25;;
62071;SDS011;48031;48.542;13.232;2023-03-14T03:48:15;1.75;;;1.33;;
62071;SDS011;48031;48.542;13.232;2023-03-14T03:52:17;1.70;;;1.50;;
62071;SDS011;48031;48.542;13.232;2023-03-14T03:56:19;1.05;;;1.05;;
62071;SDS011;48031;48.542;13.232;2023-03-14T04:00:21;1.00;;;0.90;;
62071;SDS011;48031;48.542;13.232;2023-03-14T04:04:23;0.80;;;0.80;;
62071;SDS011;48031;48.542;13.232;2023-03-14T04:08:26;0.93;;;0.93;;
62071;SDS011;48031;48.542;13.232;2023-03-14T04:12:28;0.90;;;0.90;;
62071;SDS011;48031;48.542;13.232;2023-03-14T04:16:41;0.80;;;0.80;;
62071;SDS011;48031;48.542;13.232;2023-03-14T04:24:56;0.90;;;0.90;;
62071;SDS011;48031;48.542;13.232;2023-03-14T04:28:58;0.82;;;0.82;;
62071;SDS011;48031;48.542;13.232;2023-03-14T04:33:01;0.75;;;0.75;;
62071;SDS011;48031;48.542;13.232;2023-03-14T04:37:07;1.23;;;0.70;;
62071;SDS011;48031;48.542;13.232;2023-03-14T04:41:13;0.80;;;0.80;;
62071;SDS011;48031;48.542;13.232;2023-03-14T04:45:16;0.95;;;0.85;;
62071;SDS011;48031;48.542;13.232;2023-03-14T04:49:18;1.17;;;1.10;;
62071;SDS011;48031;48.542;13.232;2023-03-14T04:53:21;1.50;;;1.40;;
62071;SDS011;48031;48.542;13.232;2023-03-14T04:57:27;2.17;;;1.77;;
62071;SDS011;48031;48.542;13.232;2023-03-14T05:01:30;2.78;;;2.10;;
62071;SDS011;48031;48.542;13.232;2023-03-14T05:06:04;2.42;;;1.95;;
62071;SDS011;48031;48.542;13.232;2023-03-14T05:10:33;2.42;;;1.90;;
62071;SDS011;48031;48.542;13.232;2023-03-14T05:14:50;3.20;;;2.57;;
62071;SDS011;48031;48.542;13.232;2023-03-14T05:19:14;6.65;;;3.90;;
62071;SDS011;48031;48.542;13.232;2023-03-14T05:23:35;6.40;;;3.22;;
62071;SDS011;48031;48.542;13.232;2023-03-14T05:27:57;4.55;;;2.72;;
62071;SDS011;48031;48.542;13.232;2023-03-14T05:32:34;3.37;;;2.63;;
62071;SDS011;48031;48.542;13.232;2023-03-14T05:37:00;4.18;;;2.63;;
62071;SDS011;48031;48.542;13.232;2023-03-14T05:41:22;3.22;;;2.70;;
62071;SDS011;48031;48.542;13.232;2023-03-14T05:45:42;4.18;;;2.78;;
62071;SDS011;48031;48.542;13.232;2023-03-14T05:50:03;3.45;;;2.75;;
62071;SDS011;48031;48.542;13.232;2023-03-14T05:54:11;3.75;;;2.83;;
62071;SDS011;48031;48.542;13.232;2023-03-14T05:58:31;4.28;;;3.20;;
62071;SDS011;48031;48.542;13.232;2023-03-14T06:02:53;4.30;;;2.50;;
62071;SDS011;48031;48.542;13.232;2023-03-14T06:07:02;3.40;;;2.20;;
62071;SDS011;48031;48.542;13.232;2023-03-14T06:11:05;3.25;;;2.50;;
62071;SDS011;48031;48.542;13.232;2023-03-14T06:15:07;2.22;;;2.03;;
62071;SDS011;48031;48.542;13.232;2023-03-14T06:19:10;1.98;;;1.77;;
62071;SDS011;48031;48.542;13.232;2023-03-14T06:23:14;2.05;;;1.75;;
62071;SDS011;48031;48.542;13.232;2023-03-14T06:27:16;1.50;;;1.40;;
62071;SDS011;48031;48.542;13.232;2023-03-14T06:31:19;1.60;;;1.50;;
62071;SDS011;48031;48.542;13.232;2023-03-14T06:35:32;1.67;;;1.58;;
62071;SDS011;48031;48.542;13.232;2023-03-14T06:39:34;1.40;;;1.30;;
62071;SDS011;48031;48.542;13.232;2023-03-14T06:43:46;2.08;;;1.70;;
62071;SDS011;48031;48.542;13.232;2023-03-14T06:47:48;2.55;;;1.80;;
62071;SDS011;48031;48.542;13.232;2023-03-14T06:51:52;1.90;;;1.77;;
62071;SDS011;48031;48.542;13.232;2023-03-14T06:55:55;2.08;;;1.50;;
62071;SDS011;48031;48.542;13.232;2023-03-14T07:00:00;1.70;;;1.60;;
62071;SDS011;48031;48.542;13.232;2023-03-14T07:04:02;2.58;;;1.90;;
62071;SDS011;48031;48.542;13.232;2023-03-14T07:08:04;3.63;;;2.30;;
62071;SDS011;48031;48.542;13.232;2023-03-14T07:12:06;3.63;;;2.30;;
62071;SDS011;48031;48.542;13.232;2023-03-14T07:16:08;2.78;;;1.88;;
62071;SDS011;48031;48.542;13.232;2023-03-14T07:20:11;2.95;;;1.88;;
62071;SDS011;48031;48.542;13.232;2023-03-14T07:24:14;4.88;;;2.42;;
62071;SDS011;48031;48.542;13.232;2023-03-14T07:28:16;3.10;;;1.75;;
62071;SDS011;48031;48.542;13.232;2023-03-14T07:32:20;2.28;;;1.50;;
62071;SDS011;48031;48.542;13.232;2023-03-14T07:36:22;1.63;;;1.40;;
62071;SDS011;48031;48.542;13.232;2023-03-14T07:40:24;1.40;;;1.20;;
62071;SDS011;48031;48.542;13.232;2023-03-14T07:44:27;1.40;;;1.20;;
62071;SDS011;48031;48.542;13.232;2023-03-14T07:48:28;1.95;;;1.33;;
62071;SDS011;48031;48.542;13.232;2023-03-14T07:52:30;1.10;;;1.10;;
62071;SDS011;48031;48.542;13.232;2023-03-14T07:56:32;1.20;;;1.10;;
62071;SDS011;48031;48.542;13.232;2023-03-14T08:00:34;1.95;;;1.10;;
62071;SDS011;48031;48.542;13.232;2023-03-14T08:04:36;1.10;;;1.00;;
62071;SDS011;48031;48.542;13.232;2023-03-14T08:08:38;0.90;;;0.90;;
62071;SDS011;48031;48.542;13.232;2023-03-14T08:12:40;0.70;;;0.70;;
62071;SDS011;48031;48.542;13.232;2023-03-14T08:16:42;1.45;;;0.93;;
62071;SDS011;48031;48.542;13.232;2023-03-14T08:20:44;1.83;;;0.73;;
62071;SDS011;48031;48.542;13.232;2023-03-14T08:24:45;0.70;;;0.70;;
62071;SDS011;48031;48.542;13.232;2023-03-14T08:28:47;2.17;;;1.40;;
62071;SDS011;48031;48.542;13.232;2023-03-14T08:32:49;1.35;;;1.00;;
62071;SDS011;48031;48.542;13.232;2023-03-14T08:36:52;1.10;;;1.00;;
62071;SDS011;48031;48.542;13.232;2023-03-14T08:40:58;0.90;;;0.90;;
62071;SDS011;48031;48.542;13.232;2023-03-14T08:45:01;1.80;;;1.00;;
62071;SDS011;48031;48.542;13.232;2023-03-14T08:49:04;0.95;;;0.95;;
62071;SDS011;48031;48.542;13.232;2023-03-14T08:53:05;1.05;;;0.95;;
62071;SDS011;48031;48.542;13.232;2023-03-14T08:57:08;2.47;;;1.20;;
62071;SDS011;48031;48.542;13.232;2023-03-14T09:01:10;0.80;;;0.80;;
62071;SDS011;48031;48.542;13.232;2023-03-14T09:05:12;1.40;;;1.30;;
62071;SDS011;48031;48.542;13.232;2023-03-14T09:09:15;1.33;;;1.10;;
62071;SDS011;48031;48.542;13.232;2023-03-14T09:13:16;0.70;;;0.70;;
62071;SDS011;48031;48.542;13.232;2023-03-14T09:17:18;0.80;;;0.80;;
62071;SDS011;48031;48.542;13.232;2023-03-14T09:21:20;0.82;;;0.70;;
62071;SDS011;48031;48.542;13.232;2023-03-14T09:25:22;0.90;;;0.90;;
62071;SDS011;48031;48.542;13.232;2023-03-14T09:29:24;1.30;;;1.20;;
62071;SDS011;48031;48.542;13.232;2023-03-14T09:33:26;0.90;;;0.90;;
62071;SDS011;48031;48.542;13.232;2023-03-14T09:37:28;1.00;;;0.95;;
62071;SDS011;48031;48.542;13.232;2023-03-14T09:41:33;1.30;;;1.20;;
62071;SDS011;48031;48.542;13.232;2023-03-14T09:45:40;1.52;;;1.00;;
62071;SDS011;48031;48.542;13.232;2023-03-14T09:49:44;1.13;;;1.00;;
62071;SDS011;48031;48.542;13.232;2023-03-14T09:53:47;0.77;;;0.77;;
62071;SDS011;48031;48.542;13.232;2023-03-14T09:57:54;0.82;;;0.82;;
62071;SDS011;48031;48.542;13.232;2023-03-14T10:02:01;2.67;;;1.20;;
62071;SDS011;48031;48.542;13.232;2023-03-14T10:06:13;1.55;;;1.00;;
62071;SDS011;48031;48.542;13.232;2023-03-14T10:14:30;1.20;;;1.10;;
62071;SDS011;48031;48.542;13.232;2023-03-14T10:18:38;1.38;;;1.27;;
62071;SDS011;48031;48.542;13.232;2023-03-14T10:22:46;2.20;;;2.00;;
62071;SDS011;48031;48.542;13.232;2023-03-14T10:26:53;1.75;;;0.90;;
62071;SDS011;48031;48.542;13.232;2023-03-14T10:30:56;2.58;;;0.90;;
62071;SDS011;48031;48.542;13.232;2023-03-14T10:43:26;0.85;;;0.85;;
62071;SDS011;48031;48.542;13.232;2023-03-14T10:47:35;1.10;;;1.00;;
62071;SDS011;48031;48.542;13.232;2023-03-14T10:51:37;1.30;;;1.10;;
62071;SDS011;48031;48.542;13.232;2023-03-14T10:55:40;1.05;;;0.95;;
62071;SDS011;48031;48.542;13.232;2023-03-14T10:59:44;1.15;;;1.02;;
62071;SDS011;48031;48.542;13.232;2023-03-14T11:03:49;1.15;;;0.80;;
62071;SDS011;48031;48.542;13.232;2023-03-14T11:08:02;1.60;;;1.50;;
62071;SDS011;48031;48.542;13.232;2023-03-14T11:33:44;3.92;;;2.60;;
62071;SDS011;48031;48.542;13.232;2023-03-14T11:37:56;2.00;;;1.13;;
62071;SDS011;48031;48.542;13.232;2023-03-14T11:42:11;1.42;;;1.10;;
62071;SDS011;48031;48.542;13.232;2023-03-14T11:46:17;1.50;;;1.40;;
62071;SDS011;48031;48.542;13.232;2023-03-14T11:50:26;1.98;;;1.50;;
62071;SDS011;48031;48.542;13.232;2023-03-14T11:54:37;1.05;;;1.00;;
62071;SDS011;48031;48.542;13.232;2023-03-14T11:58:49;1.45;;;1.00;;
62071;SDS011;48031;48.542;13.232;2023-03-14T12:03:11;1.20;;;1.10;;
62071;SDS011;48031;48.542;13.232;2023-03-14T12:07:28;2.08;;;1.00;;
62071;SDS011;48031;48.542;13.232;2023-03-14T12:11:44;1.00;;;1.00;;
62071;SDS011;48031;48.542;13.232;2023-03-14T12:15:55;0.90;;;0.90;;
62071;SDS011;48031;48.542;13.232;2023-03-14T12:20:01;1.17;;;0.90;;
62071;SDS011;48031;48.542;13.232;2023-03-14T12:24:14;1.25;;;0.80;;
62071;SDS011;48031;48.542;13.232;2023-03-14T12:28:30;0.73;;;0.73;;
62071;SDS011;48031;48.542;13.232;2023-03-14T12:32:32;0.90;;;0.90;;
62071;SDS011;48031;48.542;13.232;2023-03-14T12:40:56;1.05;;;0.70;;
62071;SDS011;48031;48.542;13.232;2023-03-14T12:45:21;2.15;;;0.80;;
62071;SDS011;48031;48.542;13.232;2023-03-14T12:49:34;0.80;;;0.70;;
62071;SDS011;48031;48.542;13.232;2023-03-14T12:53:45;0.90;;;0.90;;
62071;SDS011;48031;48.542;13.232;2023-03-14T13:02:24;0.80;;;0.80;;
62071;SDS011;48031;48.542;13.232;2023-03-14T13:10:52;0.70;;;0.70;;
62071;SDS011;48031;48.542;13.232;2023-03-14T13:14:57;0.70;;;0.70;;
62071;SDS011;48031;48.542;13.232;2023-03-14T13:19:02;1.80;;;0.90;;
62071;SDS011;48031;48.542;13.232;2023-03-14T13:23:19;0.70;;;0.70;;
62071;SDS011;48031;48.542;13.232;2023-03-14T13:27:42;1.58;;;1.48;;
62071;SDS011;48031;48.542;13.232;2023-03-14T13:31:45;1.27;;;0.90;;
62071;SDS011;48031;48.542;13.232;2023-03-14T13:35:57;1.10;;;1.05;;
62071;SDS011;48031;48.542;13.232;2023-03-14T13:40:01;1.00;;;1.00;;
62071;SDS011;48031;48.542;13.232;2023-03-14T13:44:07;3.00;;;2.80;;
62071;SDS011;48031;48.542;13.232;2023-03-14T13:48:15;2.20;;;2.10;;
62071;SDS011;48031;48.542;13.232;2023-03-14T13:52:36;0.80;;;0.80;;
62071;SDS011;48031;48.542;13.232;2023-03-14T13:56:39;0.80;;;0.80;;
62071;SDS011;48031;48.542;13.232;2023-03-14T14:00:43;1.58;;;0.60;;
62071;SDS011;48031;48.542;13.232;2023-03-14T14:04:54;0.57;;;0.57;;
62071;SDS011;48031;48.542;13.232;2023-03-14T14:08:59;0.60;;;0.60;;
62071;SDS011;48031;48.542;13.232;2023-03-14T14:13:06;0.82;;;0.60;;
62071;SDS011;48031;48.542;13.232;2023-03-14T14:17:13;2.30;;;0.73;;
62071;SDS011;48031;48.542;13.232;2023-03-14T14:21:19;0.93;;;0.60;;
62071;SDS011;48031;48.542;13.232;2023-03-14T14:25:21;0.90;;;0.80;;
62071;SDS011;48031;48.542;13.232;2023-03-14T14:29:25;1.00;;;0.70;;
62071;SDS011;48031;48.542;13.232;2023-03-14T14:33:39;1.85;;;0.80;;
62071;SDS011;48031;48.542;13.232;2023-03-14T14:37:54;0.80;;;0.80;;
62071;SDS011;48031;48.542;13.232;2023-03-14T14:41:56;1.60;;;0.98;;
62071;SDS011;48031;48.542;13.232;2023-03-14T14:45:57;0.93;;;0.90;;
62071;SDS011;48031;48.542;13.232;2023-03-14T14:50:00;0.70;;;0.70;;
62071;SDS011;48031;48.542;13.232;2023-03-14T14:54:09;1.15;;;1.00;;
62071;SDS011;48031;48.542;13.232;2023-03-14T15:02:51;0.80;;;0.80;;
62071;SDS011;48031;48.542;13.232;2023-03-14T15:06:56;0.80;;;0.80;;
62071;SDS011;48031;48.542;13.232;2023-03-14T15:10:58;1.10;;;1.00;;
62071;SDS011;48031;48.542;13.232;2023-03-14T15:15:00;1.67;;;1.00;;
62071;SDS011;48031;48.542;13.232;2023-03-14T15:19:03;1.98;;;1.08;;
62071;SDS011;48031;48.542;13.232;2023-03-14T15:23:24;1.05;;;0.95;;
62071;SDS011;48031;48.542;13.232;2023-03-14T15:27:26;1.75;;;1.00;;
62071;SDS011;48031;48.542;13.232;2023-03-14T15:31:32;0.80;;;0.80;;
62071;SDS011;48031;48.542;13.232;2023-03-14T15:35:35;0.82;;;0.82;;
62071;SDS011;48031;48.542;13.232;2023-03-14T15:39:38;0.90;;;0.85;;
62071;SDS011;48031;48.542;13.232;2023-03-14T15:43:41;1.20;;;1.10;;
62071;SDS011;48031;48.542;13.232;2023-03-14T15:47:42;0.90;;;0.90;;
62071;SDS011;48031;48.542;13.232;2023-03-14T15:51:44;0.93;;;0.90;;
62071;SDS011;48031;48.542;13.232;2023-03-14T15:55:46;1.08;;;1.08;;
62071;SDS011;48031;48.542;13.232;2023-03-14T15:59:48;0.90;;;0.90;;
62071;SDS011;48031;48.542;13.232;2023-03-14T16:03:51;0.60;;;0.60;;
62071;SDS011;48031;48.542;13.232;2023-03-14T16:07:54;0.80;;;0.80;;
62071;SDS011;48031;48.542;13.232;2023-03-14T16:11:56;0.98;;;0.88;;
62071;SDS011;48031;48.542;13.232;2023-03-14T16:15:58;1.05;;;0.90;;
62071;SDS011;48031;48.542;13.232;2023-03-14T16:20:02;0.80;;;0.80;;
62071;SDS011;48031;48.542;13.232;2023-03-14T16:24:05;0.90;;;0.90;;
62071;SDS011;48031;48.542;13.232;2023-03-14T16:28:07;0.85;;;0.85;;
62071;SDS011;48031;48.542;13.232;2023-03-14T16:32:12;0.90;;;0.90;;
62071;SDS011;48031;48.542;13.232;2023-03-14T16:36:13;0.90;;;0.90;;
62071;SDS011;48031;48.542;13.232;2023-03-14T16:40:16;1.00;;;1.00;;
62071;SDS011;48031;48.542;13.232;2023-03-14T16:44:18;0.80;;;0.80;;
62071;SDS011;48031;48.542;13.232;2023-03-14T16:48:19;1.10;;;1.00;;
62071;SDS011;48031;48.542;13.232;2023-03-14T16:52:21;0.93;;;0.80;;
62071;SDS011;48031;48.542;13.232;2023-03-14T16:56:23;2.15;;;1.10;;
62071;SDS011;48031;48.542;13.232;2023-03-14T17:00:25;0.95;;;0.95;;
62071;SDS011;48031;48.542;13.232;2023-03-14T17:04:27;0.77;;;0.77;;
62071;SDS011;48031;48.542;13.232;2023-03-14T17:08:29;0.93;;;0.93;;
62071;SDS011;48031;48.542;13.232;2023-03-14T17:12:31;1.58;;;1.00;;
62071;SDS011;48031;48.542;13.232;2023-03-14T17:16:33;0.95;;;0.95;;
62071;SDS011;48031;48.542;13.232;2023-03-14T17:20:35;1.15;;;1.05;;
62071;SDS011;48031;48.542;13.232;2023-03-14T17:24:37;2.22;;;1.42;;
62071;SDS011;48031;48.542;13.232;2023-03-14T17:28:40;1.63;;;1.30;;
62071;SDS011;48031;48.542;13.232;2023-03-14T17:32:42;1.85;;;1.48;;
62071;SDS011;48031;48.542;13.232;2023-03-14T17:36:44;2.55;;;1.23;;
62071;SDS011;48031;48.542;13.232;2023-03-14T17:40:46;1.50;;;1.40;;
62071;SDS011;48031;48.542;13.232;2023-03-14T17:44:49;1.30;;;1.20;;
62071;SDS011;48031;48.542;13.232;2023-03-14T17:48:51;1.25;;;1.02;;
62071;SDS011;48031;48.542;13.232;2023-03-14T17:52:53;1.83;;;1.00;;
62071;SDS011;48031;48.542;13.232;2023-03-14T17:56:55;1.58;;;1.20;;
62071;SDS011;48031;48.542;13.232;2023-03-14T18:01:06;1.42;;;1.20;;
62071;SDS011;48031;48.542;13.232;2023-03-14T18:05:12;1.15;;;1.10;;
62071;SDS011;48031;48.542;13.232;2023-03-14T18:09:14;2.20;;;1.20;;
62071;SDS011;48031;48.542;13.232;2023-03-14T18:13:15;2.15;;;0.90;;
62071;SDS011;48031;48.542;13.232;2023-03-14T18:17:18;2.22;;;1.40;;
62071;SDS011;48031;48.542;13.232;2023-03-14T18:21:20;0.90;;;0.90;;
62071;SDS011;48031;48.542;13.232;2023-03-14T18:25:22;2.03;;;1.23;;
62071;SDS011;48031;48.542;13.232;2023-03-14T18:29:24;1.30;;;1.02;;
62071;SDS011;48031;48.542;13.232;2023-03-14T18:33:27;1.20;;;1.10;;
62071;SDS011;48031;48.542;13.232;2023-03-14T18:37:29;0.95;;;0.90;;
62071;SDS011;48031;48.542;13.232;2023-03-14T18:41:32;1.63;;;1.20;;
62071;SDS011;48031;48.542;13.232;2023-03-14T18:45:35;1.08;;;1.00;;
62071;SDS011;48031;48.542;13.232;2023-03-14T18:49:38;1.40;;;1.30;;
62071;SDS011;48031;48.542;13.232;2023-03-14T18:53:41;1.85;;;1.27;;
62071;SDS011;48031;48.542;13.232;2023-03-14T18:57:43;2.55;;;1.20;;
62071;SDS011;48031;48.542;13.232;2023-03-14T19:01:45;1.70;;;1.23;;
62071;SDS011;48031;48.542;13.232;2023-03-14T19:05:47;4.88;;;1.20;;
62071;SDS011;48031;48.542;13.232;2023-03-14T19:09:49;2.00;;;1.08;;
62071;SDS011;48031;48.542;13.232;2023-03-14T19:13:51;1.30;;;1.20;;
62071;SDS011;48031;48.542;13.232;2023-03-14T19:17:55;2.15;;;1.00;;
62071;SDS011;48031;48.542;13.232;2023-03-14T19:21:57;1.63;;;1.30;;
62071;SDS011;48031;48.542;13.232;2023-03-14T19:25:59;3.67;;;1.75;;
62071;SDS011;48031;48.542;13.232;2023-03-14T19:30:03;4.20;;;1.30;;
62071;SDS011;48031;48.542;13.232;2023-03-14T19:34:05;1.30;;;1.20;;
62071;SDS011;48031;48.542;13.232;2023-03-14T19:38:07;1.50;;;1.15;;
62071;SDS011;48031;48.542;13.232;2023-03-14T19:42:10;1.77;;;1.17;;
62071;SDS011;48031;48.542;13.232;2023-03-14T19:46:12;2.03;;;1.30;;
62071;SDS011;48031;48.542;13.232;2023-03-14T19:50:14;2.42;;;1.27;;
62071;SDS011;48031;48.542;13.232;2023-03-14T19:54:16;1.40;;;1.20;;
62071;SDS011;48031;48.542;13.232;2023-03-14T19:58:18;2.17;;;1.15;;
62071;SDS011;48031;48.542;13.232;2023-03-14T20:02:20;0.88;;;0.88;;
62071;SDS011;48031;48.542;13.232;2023-03-14T20:06:22;1.65;;;1.10;;
62071;SDS011;48031;48.542;13.232;2023-03-14T20:10:24;3.25;;;1.40;;
62071;SDS011;48031;48.542;13.232;2023-03-14T20:14:25;4.22;;;1.20;;
62071;SDS011;48031;48.542;13.232;2023-03-14T20:18:27;2.92;;;1.27;;
62071;SDS011;48031;48.542;13.232;2023-03-14T20:22:31;3.88;;;1.50;;
62071;SDS011;48031;48.542;13.232;2023-03-14T20:26:36;2.05;;;1.40;;
62071;SDS011;48031;48.542;13.232;2023-03-14T20:30:38;2.33;;;1.10;;
62071;SDS011;48031;48.542;13.232;2023-03-14T20:34:44;3.47;;;1.00;;
62071;SDS011;48031;48.542;13.232;2023-03-14T20:38:45;2.55;;;1.20;;
62071;SDS011;48031;48.542;13.232;2023-03-14T20:42:47;1.77;;;1.20;;
62071;SDS011;48031;48.542;13.232;2023-03-14T20:46:50;2.00;;;1.50;;
62071;SDS011;48031;48.542;13.232;2023-03-14T20:50:51;1.33;;;1.23;;
62071;SDS011;48031;48.542;13.232;2023-03-14T20:54:54;2.10;;;1.20;;
62071;SDS011;48031;48.542;13.232;2023-03-14T20:58:58;3.03;;;1.17;;
62071;SDS011;48031;48.542;13.232;2023-03-14T21:03:00;1.58;;;1.20;;
62071;SDS011;48031;48.542;13.232;2023-03-14T21:07:02;2.80;;;1.10;;
62071;SDS011;48031;48.542;13.232;2023-03-14T21:11:05;3.03;;;1.30;;
62071;SDS011;48031;48.542;13.232;2023-03-14T21:15:07;1.95;;;1.55;;
62071;SDS011;48031;48.542;13.232;2023-03-14T21:19:09;1.85;;;1.20;;
62071;SDS011;48031;48.542;13.232;2023-03-14T21:23:12;1.75;;;1.40;;
62071;SDS011;48031;48.542;13.232;2023-03-14T21:27:15;1.63;;;1.30;;
62071;SDS011;48031;48.542;13.232;2023-03-14T21:31:17;1.50;;;1.23;;
62071;SDS011;48031;48.542;13.232;2023-03-14T21:35:20;1.55;;;1.30;;
62071;SDS011;48031;48.542;13.232;2023-03-14T21:39:22;4.20;;;1.27;;
62071;SDS011;48031;48.542;13.232;2023-03-14T21:43:24;1.63;;;1.20;;
62071;SDS011;48031;48.542;13.232;2023-03-14T21:47:27;2.47;;;1.20;;
62071;SDS011;48031;48.542;13.232;2023-03-14T21:51:29;2.13;;;1.20;;
62071;SDS011;48031;48.542;13.232;2023-03-14T21:55:31;3.42;;;1.35;;
62071;SDS011;48031;48.542;13.232;2023-03-14T21:59:34;1.42;;;1.10;;
62071;SDS011;48031;48.542;13.232;2023-03-14T22:03:36;2.08;;;1.50;;
62071;SDS011;48031;48.542;13.232;2023-03-14T22:07:39;1.40;;;1.30;;
62071;SDS011;48031;48.542;13.232;2023-03-14T22:11:41;2.15;;;1.10;;
62071;SDS011;48031;48.542;13.232;2023-03-14T22:15:44;1.52;;;1.40;;
62071;SDS011;48031;48.542;13.232;2023-03-14T22:19:48;1.40;;;1.30;;
62071;SDS011;48031;48.542;13.232;2023-03-14T22:23:50;1.52;;;1.25;;
62071;SDS011;48031;48.542;13.232;2023-03-14T22:27:52;1.30;;;1.20;;
62071;SDS011;48031;48.542;13.232;2023-03-14T22:31:53;1.40;;;1.23;;
62071;SDS011;48031;48.542;13.232;2023-03-14T22:35:55;1.80;;;1.25;;
62071;SDS011;48031;48.542;13.232;2023-03-14T22:39:57;1.40;;;1.30;;
62071;SDS011;48031;48.542;13.232;2023-03-14T22:43:59;2.40;;;1.42;;
62071;SDS011;48031;48.542;13.232;2023-03-14T22:48:02;2.33;;;1.23;;
62071;SDS011;48031;48.542;13.232;2023-03-14T22:52:04;1.50;;;1.17;;
62071;SDS011;48031;48.542;13.232;2023-03-14T22:56:06;1.80;;;1.05;;
62071;SDS011;48031;48.542;13.232;2023-03-14T23:00:10;1.35;;;1.10;;
62071;SDS011;48031;48.542;13.232;2023-03-14T23:04:14;1.73;;;1.30;;
62071;SDS011;48031;48.542;13.232;2023-03-14T23:08:16;1.70;;;1.25;;
62071;SDS011;48031;48.542;13.232;2023-03-14T23:12:18;1.58;;;1.25;;
62071;SDS011;48031;48.542;13.232;2023-03-14T23:16:19;2.08;;;1.25;;
62071;SDS011;48031;48.542;13.232;2023-03-14T23:20:30;1.55;;;1.45;;
62071;SDS011;48031;48.542;13.232;2023-03-14T23:24:32;3.63;;;1.40;;
62071;SDS011;48031;48.542;13.232;2023-03-14T23:28:34;3.17;;;1.13;;
62071;SDS011;48031;48.542;13.232;2023-03-14T23:32:37;1.75;;;1.30;;
62071;SDS011;48031;48.542;13.232;2023-03-14T23:36:39;2.50;;;1.30;;
62071;SDS011;48031;48.542;13.232;2023-03-14T23:40:40;4.30;;;1.20;;
62071;SDS011;48031;48.542;13.232;2023-03-14T23:44:42;2.47;;;1.40;;
62071;SDS011;48031;48.542;13.232;2023-03-14T23:48:44;1.33;;;1.20;;
62071;SDS011;48031;48.542;13.232;2023-03-14T23:52:49;4.15;;;1.40;;
62071;SDS011;48031;48.542;13.232;2023-03-14T23:56:50;1.40;;;1.30;;
